Time;durP1;ratioP1;P1;durP2;ratioP2;P2;SDS_P1;SDS_P2;PMS_P1;PMS_P2;Temp;Humidity;BMP_temperature;BMP_pressure;BME280_temperature;BME280_humidity;BME280_pressure;Samples;Min_cycle;Max_cycle;Signal;HPM_P1;HPM_P2
2022/01/22 00:00:53;;;;;;;12.80;1.70;;;;;;;-0.33;77.31;100473.37;105499;1270;666084;-59
2022/01/22 00:03:26;;;;;;;8.20;1.20;;;;;;;-0.35;77.52;100472.52;105980;1270;22563;-59
2022/01/22 00:05:58;;;;;;;5.90;0.90;;;;;;;-0.37;77.96;100474.48;105946;1270;22588;-58
2022/01/22 00:08:29;;;;;;;15.40;1.60;;;;;;;-0.40;79.08;100470.66;106113;1270;22539;-59
2022/01/22 00:11:02;;;;;;;10.80;1.70;;;;;;;-0.44;78.68;100470.67;106075;1270;22646;-59
2022/01/22 00:16:23;;;;;;;14.80;2.00;;;;;;;-0.47;79.77;100463.02;105957;1270;24613;-58
2022/01/22 00:18:54;;;;;;;9.10;1.40;;;;;;;-0.48;79.61;100459.81;106005;1270;25572;-58
2022/01/22 00:21:26;;;;;;;10.00;1.40;;;;;;;-0.49;79.64;100455.66;105968;1271;22561;-56
2022/01/22 00:24:01;;;;;;;12.60;2.10;;;;;;;-0.49;79.73;100456.29;106003;1270;22528;-57
2022/01/22 00:26:32;;;;;;;14.70;2.10;;;;;;;-0.49;80.26;100451.59;105962;1270;25500;-59
2022/01/22 00:29:04;;;;;;;13.90;2.80;;;;;;;-0.49;80.75;100450.34;106252;1270;23005;-56
2022/01/22 00:31:36;;;;;;;19.50;5.00;;;;;;;-0.49;81.07;100449.32;106193;1269;22660;-59
2022/01/22 00:34:07;;;;;;;8.80;1.40;;;;;;;-0.48;81.66;100455.34;105999;1270;22547;-57
2022/01/22 00:36:38;;;;;;;9.20;2.10;;;;;;;-0.46;81.29;100454.80;106280;1270;22613;-58
2022/01/22 00:39:09;;;;;;;14.10;2.00;;;;;;;-0.45;81.92;100461.35;105918;1270;24294;-58
2022/01/22 00:41:41;;;;;;;7.20;1.80;;;;;;;-0.43;81.91;100459.70;105996;1270;24267;-58
2022/01/22 00:44:12;;;;;;;10.20;1.70;;;;;;;-0.42;81.97;100457.03;105985;1271;22567;-58
2022/01/22 00:46:43;;;;;;;11.10;1.80;;;;;;;-0.40;82.72;100463.68;106037;1270;22605;-59
2022/01/22 00:49:14;;;;;;;12.20;1.40;;;;;;;-0.38;82.63;100463.04;106104;1271;22848;-55
2022/01/22 00:51:44;;;;;;;9.70;1.60;;;;;;;-0.36;82.81;100460.06;105973;1271;22556;-58
2022/01/22 00:54:15;;;;;;;8.40;1.80;;;;;;;-0.35;83.09;100466.63;105933;1270;22577;-57
2022/01/22 00:56:47;;;;;;;9.70;1.50;;;;;;;-0.33;82.79;100462.55;105852;1270;22544;-61
2022/01/22 00:59:18;;;;;;;9.30;1.30;;;;;;;-0.31;82.95;100457.68;106285;1270;22563;-59
2022/01/22 01:01:49;;;;;;;13.10;2.10;;;;;;;-0.30;83.61;100452.90;106229;1270;22531;-58
2022/01/22 01:04:21;;;;;;;14.00;1.70;;;;;;;-0.28;83.83;100460.02;106149;1271;22591;-59
2022/01/22 01:06:52;;;;;;;8.00;1.30;;;;;;;-0.26;83.99;100462.91;105961;1270;26404;-59
2022/01/22 01:09:25;;;;;;;8.90;1.60;;;;;;;-0.25;84.57;100459.92;105941;1270;24251;-59
2022/01/22 01:12:01;;;;;;;7.80;1.30;;;;;;;-0.24;84.11;100456.08;105965;1270;22565;-61
2022/01/22 01:14:38;;;;;;;8.70;1.20;;;;;;;-0.24;84.50;100452.79;106098;1271;22553;-59
2022/01/22 01:17:22;;;;;;;9.30;1.30;;;;;;;-0.23;84.27;100466.50;106002;1270;25263;-59
2022/01/22 01:34:16;;;;;;;7.90;1.80;;;;;;;-0.24;86.06;100464.15;105583;1273;24661;-59
2022/01/22 01:36:48;;;;;;;8.50;1.40;;;;;;;-0.23;86.09;100458.51;105665;1273;22596;-59
2022/01/22 01:39:25;;;;;;;11.40;1.50;;;;;;;-0.23;86.23;100461.41;105682;1273;25541;-58
2022/01/22 01:42:01;;;;;;;8.70;1.50;;;;;;;-0.22;86.60;100457.48;105551;1273;25447;-59
2022/01/22 01:44:32;;;;;;;11.40;1.60;;;;;;;-0.23;87.15;100458.96;105568;1273;25405;-58
2022/01/22 01:47:07;;;;;;;11.90;1.50;;;;;;;-0.22;86.58;100455.27;105618;1273;25614;-58
2022/01/22 01:49:39;;;;;;;6.90;1.10;;;;;;;-0.21;86.76;100459.73;105703;1274;22560;-58
2022/01/22 01:52:16;;;;;;;7.00;1.20;;;;;;;-0.20;87.06;100462.95;105710;1273;25553;-59
2022/01/22 01:55:00;;;;;;;6.90;1.30;;;;;;;-0.20;87.20;100456.76;105850;1273;22605;-58
2022/01/22 01:57:38;;;;;;;7.00;1.20;;;;;;;-0.19;87.25;100456.13;105629;1274;22730;-58
2022/01/22 02:00:19;;;;;;;7.80;1.20;;;;;;;-0.19;87.42;100452.29;105643;1273;22557;-58
2022/01/22 02:02:52;;;;;;;10.90;2.00;;;;;;;-0.19;87.46;100459.09;105725;1273;24293;-58
2022/01/22 02:05:24;;;;;;;11.40;1.40;;;;;;;-0.18;87.58;100455.88;105692;1270;24326;-59
2022/01/22 02:07:56;;;;;;;8.10;1.30;;;;;;;-0.18;87.90;100458.86;106042;1270;22544;-57
2022/01/22 02:10:30;;;;;;;7.00;1.20;;;;;;;-0.17;87.78;100459.65;106322;1270;24476;-58
2022/01/22 02:24:20;;;;;;;12.80;2.60;;;;;;;-0.12;87.41;100459.77;105860;1270;23003;-58
2022/01/22 02:26:51;;;;;;;4.30;1.10;;;;;;;-0.10;87.41;100467.20;105954;1270;22665;-56
2022/01/22 02:29:22;;;;;;;7.80;1.20;;;;;;;-0.09;87.16;100469.08;105906;1271;25590;-58
2022/01/22 02:32:07;;;;;;;6.70;1.30;;;;;;;-0.08;87.12;100465.30;106016;1271;22550;-58
2022/01/22 02:34:50;;;;;;;7.80;2.70;;;;;;;-0.06;87.26;100464.74;106016;1271;24363;-56
2022/01/22 02:37:24;;;;;;;10.30;1.30;;;;;;;-0.05;87.17;100473.30;106001;1270;22623;-60
2022/01/22 02:40:06;;;;;;;6.40;1.20;;;;;;;-0.03;87.41;100474.14;106036;1271;22754;-58
2022/01/22 02:42:37;;;;;;;10.80;1.60;;;;;;;-0.02;87.49;100472.10;106011;1270;24326;-59
2022/01/22 02:45:12;;;;;;;9.10;1.50;;;;;;;0.00;87.20;100465.51;105976;1270;25337;-58
2022/01/22 02:47:43;;;;;;;12.40;1.80;;;;;;;-0.00;87.23;100471.23;106128;1270;24233;-58
2022/01/22 02:50:17;;;;;;;8.90;1.60;;;;;;;0.00;87.10;100480.39;106159;1271;22561;-60
2022/01/22 02:52:49;;;;;;;9.30;1.80;;;;;;;0.01;87.14;100486.19;106139;1270;24313;-57
2022/01/22 02:55:21;;;;;;;7.40;1.40;;;;;;;0.03;87.18;100488.23;106270;1270;25637;-57
2022/01/22 02:57:52;;;;;;;7.20;1.20;;;;;;;0.04;87.16;100491.11;106014;1270;23190;-58
2022/01/22 03:00:24;;;;;;;7.60;1.50;;;;;;;0.05;87.31;100486.80;105969;1270;22547;-57
2022/01/22 03:02:56;;;;;;;10.60;1.80;;;;;;;0.05;87.27;100487.50;105948;1270;22571;-60
2022/01/22 03:05:27;;;;;;;6.80;1.20;;;;;;;0.07;87.27;100486.86;106133;1271;24548;-57
2022/01/22 03:08:04;;;;;;;5.60;1.60;;;;;;;0.07;87.33;100486.14;106160;1270;22552;-59
2022/01/22 03:10:37;;;;;;;7.20;1.20;;;;;;;0.07;87.44;100488.35;106058;1271;22614;-56
2022/01/22 03:13:23;;;;;;;7.90;1.50;;;;;;;0.07;87.34;100492.35;106017;1270;22540;-59
2022/01/22 03:16:04;;;;;;;8.50;1.60;;;;;;;0.09;87.24;100495.47;105990;1271;25262;-59
2022/01/22 03:18:52;;;;;;;6.10;1.20;;;;;;;0.09;87.27;100501.51;105975;1271;25312;-57
2022/01/22 03:27:23;;;;;;;6.20;1.40;;;;;;;0.09;87.56;100507.15;105925;1270;23936;-59
2022/01/22 03:29:54;;;;;;;8.60;1.30;;;;;;;0.08;87.71;100516.34;106038;1270;22618;-59
2022/01/22 03:32:29;;;;;;;5.20;1.10;;;;;;;0.08;87.61;100515.71;106030;1270;24397;-57
2022/01/22 03:35:09;;;;;;;5.10;1.30;;;;;;;0.07;87.69;100525.91;106125;1270;22530;-58
2022/01/22 03:37:41;;;;;;;7.80;1.60;;;;;;;0.07;87.81;100531.17;106009;1270;24236;-57
2022/01/22 03:40:15;;;;;;;4.50;1.50;;;;;;;0.07;87.76;100532.19;105992;1270;22574;-59
2022/01/22 03:42:47;;;;;;;6.20;1.30;;;;;;;0.07;87.88;100531.25;106135;1270;24312;-57
2022/01/22 03:45:18;;;;;;;10.30;1.40;;;;;;;0.07;87.62;100532.58;106017;1270;22568;-58
2022/01/22 03:47:50;;;;;;;6.90;1.90;;;;;;;0.08;87.90;100536.02;105883;1270;24219;-57
2022/01/22 03:50:21;;;;;;;6.60;1.30;;;;;;;0.09;87.69;100531.86;105835;1270;25541;-57
2022/01/22 03:52:52;;;;;;;8.60;2.00;;;;;;;0.10;87.84;100533.66;106100;1270;25864;-59
2022/01/22 03:55:34;;;;;;;6.10;1.70;;;;;;;0.11;87.84;100542.84;105980;1270;22556;-59
2022/01/22 03:58:06;;;;;;;8.00;2.20;;;;;;;0.11;87.93;100551.93;106175;1271;22713;-58
2022/01/22 04:00:39;;;;;;;7.60;1.60;;;;;;;0.10;87.98;100556.17;106046;1271;22571;-58
2022/01/22 04:03:30;;;;;;;8.00;2.30;;;;;;;0.10;87.86;100560.26;106065;1270;24373;-59
2022/01/22 04:06:29;;;;;;;12.50;2.40;;;;;;;0.10;87.83;100566.52;106042;1270;24239;-59
2022/01/22 04:09:04;;;;;;;8.40;2.40;;;;;;;0.11;87.61;100567.45;105749;1270;25441;-59
2022/01/22 04:11:41;;;;;;;10.00;2.60;;;;;;;0.12;87.61;100575.92;105992;1271;22600;-58
2022/01/22 04:14:17;;;;;;;13.70;4.50;;;;;;;0.13;87.57;100578.50;106068;1270;24234;-58
2022/01/22 04:17:02;;;;;;;10.90;3.10;;;;;;;0.13;87.35;100577.34;106032;1270;22575;-58
2022/01/22 04:25:27;;;;;;;13.00;3.10;;;;;;;0.13;87.41;100579.45;105777;1271;22998;-58
2022/01/22 04:27:59;;;;;;;7.40;1.90;;;;;;;0.12;87.24;100580.39;105991;1271;25573;-59
2022/01/22 04:30:31;;;;;;;11.40;3.30;;;;;;;0.10;87.12;100585.50;106063;1271;25210;-58
2022/01/22 04:33:04;;;;;;;10.50;3.20;;;;;;;0.08;86.68;100588.49;106073;1270;22537;-57
2022/01/22 04:35:35;;;;;;;8.70;2.40;;;;;;;0.07;86.36;100596.73;106019;1270;24030;-59
2022/01/22 04:38:06;;;;;;;7.30;2.30;;;;;;;0.03;85.78;100600.05;106059;1270;25453;-58
2022/01/22 04:40:38;;;;;;;11.20;2.60;;;;;;;-0.01;85.32;100605.33;105978;1270;24303;-58
2022/01/22 04:43:10;;;;;;;9.90;2.80;;;;;;;-0.06;85.05;100605.57;106054;1270;22554;-58
2022/01/22 04:45:52;;;;;;;11.40;2.50;;;;;;;-0.10;84.94;100618.05;106061;1271;22760;-59
2022/01/22 04:48:42;;;;;;;12.90;3.00;;;;;;;-0.16;84.81;100617.61;106002;1270;22576;-59
2022/01/22 04:56:51;;;;;;;11.40;3.60;;;;;;;-0.27;85.20;100632.22;105949;1271;22628;-57
2022/01/22 04:59:23;;;;;;;12.30;3.60;;;;;;;-0.29;85.15;100639.98;105840;1270;22564;-58
2022/01/22 05:01:54;;;;;;;14.20;4.80;;;;;;;-0.32;85.33;100646.27;105987;1271;22537;-56
2022/01/22 05:04:27;;;;;;;13.40;4.60;;;;;;;-0.32;85.43;100653.16;106019;1270;22549;-59
2022/01/22 05:06:58;;;;;;;14.30;4.60;;;;;;;-0.35;85.42;100657.31;105821;1270;22535;-59
2022/01/22 05:09:30;;;;;;;12.90;3.40;;;;;;;-0.35;85.49;100665.08;106273;1270;22538;-59
2022/01/22 05:12:02;;;;;;;13.40;3.40;;;;;;;-0.36;85.32;100665.63;106118;1270;25435;-58
2022/01/22 05:14:33;;;;;;;11.70;3.10;;;;;;;-0.42;84.93;100667.29;106120;1271;24231;-59
2022/01/22 05:17:07;;;;;;;12.40;3.50;;;;;;;-0.48;84.57;100670.27;105969;1270;22597;-56
2022/01/22 05:19:47;;;;;;;11.60;3.60;;;;;;;-0.50;84.64;100673.11;106149;1270;22527;-58
2022/01/22 05:22:32;;;;;;;11.60;3.10;;;;;;;-0.52;84.26;100683.05;106015;1271;25384;-58
2022/01/22 05:25:08;;;;;;;10.70;3.00;;;;;;;-0.61;83.78;100684.23;106015;1270;25431;-58
2022/01/22 05:27:53;;;;;;;14.10;3.30;;;;;;;-0.67;83.75;100688.95;105940;1270;25556;-58
2022/01/22 05:36:55;;;;;;;14.00;3.80;;;;;;;-0.86;83.23;100700.23;105451;1276;22728;-58
2022/01/22 05:39:14;;;;;;;17.60;4.80;;;;;;;-1.13;83.55;100706.05;105504;1275;25429;-59
2022/01/22 05:41:45;;;;;;;11.00;3.00;;;;;;;-1.23;83.58;100707.21;105502;1276;22844;-58
2022/01/22 05:44:17;;;;;;;18.70;4.90;;;;;;;-1.33;83.96;100713.36;105460;1276;22675;-57
2022/01/22 05:46:48;;;;;;;14.20;4.60;;;;;;;-1.41;84.16;100715.94;105490;1275;27926;-58
2022/01/22 05:49:22;;;;;;;20.30;6.40;;;;;;;-1.47;84.25;100722.09;105485;1275;23170;-58
2022/01/22 05:51:54;;;;;;;16.90;5.10;;;;;;;-1.54;84.23;100725.02;105685;1274;25551;-56
2022/01/22 05:54:50;;;;;;;18.50;5.50;;;;;;;-1.63;84.51;100731.66;105460;1276;23182;-59
2022/01/22 06:00:13;;;;;;;16.80;5.60;;;;;;;-1.75;84.79;100738.79;105492;1275;22565;-58
2022/01/22 06:02:44;;;;;;;13.60;3.90;;;;;;;-1.79;84.98;100745.10;105556;1275;22771;-59
2022/01/22 06:05:18;;;;;;;19.60;6.00;;;;;;;-1.81;84.98;100750.87;105474;1274;24429;-59
2022/01/22 06:07:49;;;;;;;23.00;6.40;;;;;;;-1.81;84.90;100759.86;105717;1274;25605;-59
2022/01/22 06:10:27;;;;;;;22.50;6.60;;;;;;;-1.83;84.86;100761.18;105811;1270;24559;-57
2022/01/22 06:13:11;;;;;;;17.60;5.40;;;;;;;-1.84;84.80;100770.33;106051;1270;24367;-60
2022/01/22 06:15:42;;;;;;;16.60;5.20;;;;;;;-1.85;84.61;100779.46;106038;1271;22754;-59
2022/01/22 06:18:13;;;;;;;19.00;5.70;;;;;;;-1.91;84.57;100783.73;105888;1270;24264;-59
2022/01/22 06:20:45;;;;;;;19.30;7.50;;;;;;;-1.91;84.55;100792.64;105892;1270;27847;-58
2022/01/22 06:23:15;;;;;;;21.30;6.60;;;;;;;-1.94;84.47;100797.16;105899;1271;22742;-58
2022/01/22 06:25:48;;;;;;;24.00;7.70;;;;;;;-1.96;84.56;100800.43;105645;1271;25566;-60
2022/01/22 06:28:20;;;;;;;18.80;6.00;;;;;;;-1.98;84.63;100809.58;106094;1271;22632;-62
2022/01/22 06:30:51;;;;;;;17.50;5.70;;;;;;;-1.99;84.97;100817.70;106357;1270;22954;-60
2022/01/22 06:33:22;;;;;;;23.60;6.60;;;;;;;-1.98;85.54;100823.64;105889;1271;22592;-59
2022/01/22 06:35:54;;;;;;;19.50;6.00;;;;;;;-1.93;85.50;100828.45;105672;1270;22676;-59
2022/01/22 06:38:26;;;;;;;23.90;6.70;;;;;;;-1.87;85.46;100838.48;107156;1270;24436;-59
2022/01/22 06:43:46;;;;;;;19.90;7.20;;;;;;;-1.74;85.45;100850.15;105794;1270;22604;-58
2022/01/22 06:46:17;;;;;;;19.80;5.90;;;;;;;-1.69;85.48;100850.34;105953;1271;25742;-59
2022/01/22 06:48:48;;;;;;;20.10;5.50;;;;;;;-1.64;85.45;100856.23;105888;1270;22668;-56
2022/01/22 06:51:22;;;;;;;18.80;6.10;;;;;;;-1.60;85.43;100863.70;105885;1271;26262;-58
2022/01/22 06:53:54;;;;;;;19.70;6.20;;;;;;;-1.57;85.39;100871.54;105837;1270;23231;-59
2022/01/22 06:56:28;;;;;;;20.90;6.20;;;;;;;-1.52;85.42;100877.04;106112;1269;25627;-58
2022/01/22 06:59:00;;;;;;;22.90;6.90;;;;;;;-1.49;85.28;100878.94;105910;1270;25535;-58
2022/01/22 07:01:31;;;;;;;19.90;6.40;;;;;;;-1.47;84.84;100882.95;106030;1270;24267;-59
2022/01/22 07:04:03;;;;;;;19.60;6.50;;;;;;;-1.48;84.74;100885.42;106062;1271;22817;-59
2022/01/22 07:06:34;;;;;;;20.60;6.30;;;;;;;-1.51;84.62;100893.08;106069;1270;27626;-58
2022/01/22 07:09:05;;;;;;;20.90;6.50;;;;;;;-1.52;84.65;100896.83;105923;1271;23867;-62
2022/01/22 07:11:37;;;;;;;22.40;6.60;;;;;;;-1.53;84.70;100900.82;105989;1269;25619;-61
2022/01/22 07:14:08;;;;;;;26.60;7.30;;;;;;;-1.53;84.59;100900.02;106031;1270;24266;-61
2022/01/22 07:16:39;;;;;;;24.80;7.70;;;;;;;-1.57;84.28;100897.98;105899;1270;22822;-62
2022/01/22 07:19:17;;;;;;;22.50;7.40;;;;;;;-1.62;84.28;100903.34;106010;1271;24314;-60
2022/01/22 07:21:58;;;;;;;26.70;8.20;;;;;;;-1.67;84.15;100911.05;105819;1270;22890;-60
2022/01/22 07:24:37;;;;;;;22.90;7.50;;;;;;;-1.70;84.22;100916.89;107151;1270;25546;-59
2022/01/22 07:27:09;;;;;;;27.00;8.00;;;;;;;-1.74;84.19;100916.54;105859;1270;24408;-58
2022/01/22 07:29:43;;;;;;;27.00;8.60;;;;;;;-1.79;84.18;100919.73;106013;1269;25505;-58
2022/01/22 07:32:25;;;;;;;26.00;8.60;;;;;;;-1.83;84.07;100921.88;105933;1270;25561;-59
2022/01/22 07:34:57;;;;;;;22.80;7.20;;;;;;;-1.86;83.98;100928.81;106112;1270;26784;-60
2022/01/22 07:37:29;;;;;;;24.00;7.70;;;;;;;-1.91;83.96;100935.88;105950;1270;24417;-59
2022/01/22 07:40:00;;;;;;;27.50;8.90;;;;;;;-1.95;83.90;100941.79;106164;1271;22792;-60
2022/01/22 07:42:31;;;;;;;21.90;7.20;;;;;;;-1.96;83.99;100942.08;106173;1270;22667;-60
2022/01/22 07:45:05;;;;;;;25.00;9.70;;;;;;;-1.97;84.20;100948.27;106052;1270;25484;-58
2022/01/22 07:47:38;;;;;;;23.90;7.60;;;;;;;-1.97;84.25;100946.63;106059;1270;24236;-59
2022/01/22 07:50:11;;;;;;;30.30;9.80;;;;;;;-1.97;84.37;100949.28;106037;1270;22800;-58
2022/01/22 07:52:43;;;;;;;23.50;7.50;;;;;;;-1.96;84.21;100957.41;106038;1270;22658;-57
2022/01/22 07:55:19;;;;;;;29.00;7.50;;;;;;;-1.97;84.46;100966.16;106222;1270;22576;-59
2022/01/22 07:57:51;;;;;;;21.80;6.50;;;;;;;-2.00;84.20;100973.87;106073;1270;24240;-57
2022/01/22 08:00:24;;;;;;;20.50;5.80;;;;;;;-2.03;84.15;100973.29;106004;1270;22665;-56
2022/01/22 08:02:56;;;;;;;17.90;5.40;;;;;;;-2.06;84.18;100976.23;106065;1270;23269;-58
2022/01/22 08:05:27;;;;;;;18.30;5.40;;;;;;;-2.10;84.07;100976.50;107188;1270;25692;-59
2022/01/22 08:07:58;;;;;;;16.40;5.20;;;;;;;-2.14;84.23;100982.95;106019;1270;25560;-58
2022/01/22 08:10:31;;;;;;;14.80;4.40;;;;;;;-2.15;84.59;100985.07;105931;1271;26092;-58
2022/01/22 08:13:02;;;;;;;15.90;4.20;;;;;;;-2.14;85.06;100986.55;106167;1270;22695;-58
2022/01/22 08:15:33;;;;;;;17.80;5.20;;;;;;;-2.11;85.02;100988.85;105981;1270;22683;-57
2022/01/22 08:18:08;;;;;;;18.80;4.70;;;;;;;-2.08;85.22;100993.02;106020;1271;22672;-59
2022/01/22 08:20:39;;;;;;;14.70;4.10;;;;;;;-2.07;84.97;100987.64;106032;1271;22725;-60
2022/01/22 08:23:10;;;;;;;17.70;5.00;;;;;;;-2.07;85.11;100991.16;106654;1270;32106;-60
2022/01/22 08:25:45;;;;;;;15.70;4.70;;;;;;;-2.05;85.08;100989.37;105922;1270;22773;-60
2022/01/22 08:31:18;;;;;;;14.70;3.70;;;;;;;-2.00;85.29;100993.25;105846;1270;23010;-58
2022/01/22 08:36:39;;;;;;;16.70;3.40;;;;;;;-1.93;85.02;101001.62;105900;1271;22605;-59
2022/01/22 08:39:10;;;;;;;18.80;4.40;;;;;;;-1.89;84.91;101007.36;106031;1271;24374;-60
2022/01/22 08:41:42;;;;;;;14.40;3.80;;;;;;;-1.86;84.69;101013.95;105993;1270;22647;-59
2022/01/22 08:44:14;;;;;;;14.70;3.00;;;;;;;-1.82;84.70;101014.78;105848;1270;23087;-60
2022/01/22 08:46:45;;;;;;;11.10;3.20;;;;;;;-1.77;84.70;101018.50;105853;1270;22779;-58
2022/01/22 08:49:16;;;;;;;15.50;4.10;;;;;;;-1.74;84.60;101012.27;106214;1270;22676;-58
2022/01/22 08:51:48;;;;;;;15.10;3.20;;;;;;;-1.72;84.33;101014.63;105914;1270;22731;-58
2022/01/22 08:54:19;;;;;;;11.60;3.00;;;;;;;-1.70;84.14;101017.86;105997;1270;22626;-58
2022/01/22 08:56:51;;;;;;;16.70;3.00;;;;;;;-1.68;84.06;101022.58;106047;1271;25701;-59
2022/01/22 08:59:22;;;;;;;12.50;3.00;;;;;;;-1.65;83.92;101029.09;106117;1271;26667;-60
2022/01/22 09:01:53;;;;;;;15.40;2.90;;;;;;;-1.61;83.88;101029.52;106435;1270;22694;-59
2022/01/22 09:04:25;;;;;;;10.70;2.10;;;;;;;-1.56;83.98;101034.09;105965;1271;23087;-64
2022/01/22 09:06:56;;;;;;;12.60;2.40;;;;;;;-1.51;83.90;101042.60;105911;1270;22570;-58
2022/01/22 09:09:28;;;;;;;16.90;3.20;;;;;;;-1.45;83.64;101047.41;106163;1270;22603;-58
2022/01/22 09:12:00;;;;;;;11.10;2.50;;;;;;;-1.41;83.57;101043.77;106093;1270;24218;-56
2022/01/22 09:14:32;;;;;;;13.10;2.60;;;;;;;-1.38;83.48;101040.51;106101;1270;26006;-55
2022/01/22 09:17:05;;;;;;;12.60;2.40;;;;;;;-1.35;83.39;101052.11;106114;1270;22664;-57
2022/01/22 09:19:37;;;;;;;14.10;2.50;;;;;;;-1.33;83.47;101053.86;106022;1270;22689;-58
2022/01/22 09:22:09;;;;;;;16.60;2.70;;;;;;;-1.32;82.85;101060.42;106094;1271;24264;-56
2022/01/22 09:24:44;;;;;;;14.10;2.60;;;;;;;-1.31;82.28;101060.37;105977;1270;24260;-58
2022/01/22 09:27:16;;;;;;;11.30;2.30;;;;;;;-1.30;82.25;101057.86;106189;1270;31117;-58
2022/01/22 09:29:48;;;;;;;9.80;1.80;;;;;;;-1.31;82.00;101066.79;105803;1271;25586;-58
2022/01/22 09:32:20;;;;;;;10.00;2.10;;;;;;;-1.31;82.55;101077.82;106345;1270;23560;-58
2022/01/22 09:34:52;;;;;;;12.20;2.30;;;;;;;-1.30;82.25;101073.13;106472;1271;23553;-61
2022/01/22 09:37:24;;;;;;;11.70;2.50;;;;;;;-1.28;82.33;101082.23;105782;1271;22635;-60
2022/01/22 09:39:55;;;;;;;11.50;1.90;;;;;;;-1.24;82.52;101084.06;107372;1270;22716;-58
2022/01/22 09:42:27;;;;;;;10.00;2.00;;;;;;;-1.22;82.44;101085.09;106429;1270;25693;-60
2022/01/22 09:44:59;;;;;;;8.70;1.50;;;;;;;-1.20;81.78;101085.42;106110;1270;22689;-60
2022/01/22 09:47:31;;;;;;;7.30;1.50;;;;;;;-1.19;81.77;101089.19;106285;1270;24292;-60
2022/01/22 09:50:03;;;;;;;8.40;1.60;;;;;;;-1.18;81.33;101096.25;106097;1271;22624;-60
2022/01/22 09:52:35;;;;;;;10.80;2.10;;;;;;;-1.17;81.63;101096.34;106938;1269;25642;-60
2022/01/22 09:55:07;;;;;;;12.00;2.10;;;;;;;-1.14;81.57;101105.35;108737;1270;24665;-60
2022/01/22 09:57:38;;;;;;;9.60;1.70;;;;;;;-1.12;81.80;101108.73;106089;1270;22660;-60
2022/01/22 10:00:13;;;;;;;10.10;1.60;;;;;;;-1.10;81.55;101116.74;106188;1270;24431;-60
2022/01/22 10:02:46;;;;;;;11.60;2.20;;;;;;;-1.08;81.67;101119.98;106099;1270;25833;-60
2022/01/22 10:05:33;;;;;;;11.50;2.50;;;;;;;-1.06;81.33;101127.21;108391;1270;22646;-60
2022/01/22 10:08:24;;;;;;;12.10;1.80;;;;;;;-1.04;81.17;101134.02;107270;1270;22800;-60
2022/01/22 10:10:56;;;;;;;10.90;2.20;;;;;;;-1.02;80.36;101140.06;106150;1270;26807;-60
2022/01/22 10:13:43;;;;;;;9.80;2.00;;;;;;;-1.01;80.62;101145.23;106150;1270;22625;-60
2022/01/22 10:16:22;;;;;;;10.30;1.60;;;;;;;-1.00;80.30;101146.91;106056;1271;22546;-60
2022/01/22 10:19:18;;;;;;;12.40;2.20;;;;;;;-1.00;80.38;101148.00;105980;1271;24380;-60
2022/01/22 10:21:53;;;;;;;11.50;1.90;;;;;;;-0.98;80.45;101160.06;105933;1271;22701;-61
2022/01/22 10:24:43;;;;;;;8.20;1.50;;;;;;;-0.97;79.96;101163.52;106032;1271;25692;-60
2022/01/22 10:27:25;;;;;;;9.60;1.70;;;;;;;-0.95;80.27;101160.87;105991;1270;26164;-60
2022/01/22 10:29:58;;;;;;;10.30;1.70;;;;;;;-0.92;79.90;101159.50;106104;1271;24437;-59
2022/01/22 10:32:42;;;;;;;9.80;1.80;;;;;;;-0.88;79.69;101162.89;105889;1271;22872;-60
2022/01/22 10:35:16;;;;;;;8.60;1.10;;;;;;;-0.82;79.10;101166.77;105937;1271;25527;-60
2022/01/22 10:37:54;;;;;;;10.70;1.50;;;;;;;-0.78;78.51;101166.65;106047;1271;22823;-60
2022/01/22 10:40:29;;;;;;;11.80;2.10;;;;;;;-0.73;79.35;101177.58;105871;1271;24304;-60
2022/01/22 10:43:20;;;;;;;7.10;1.20;;;;;;;-0.69;79.50;101173.16;106171;1270;22550;-60
2022/01/22 10:46:07;;;;;;;10.10;2.00;;;;;;;-0.64;78.53;101173.02;105935;1271;22558;-60
2022/01/22 10:48:41;;;;;;;9.60;1.70;;;;;;;-0.59;78.20;101175.73;105924;1270;24428;-60
2022/01/22 10:51:14;;;;;;;11.60;1.60;;;;;;;-0.57;77.39;101178.09;106077;1271;22740;-60
2022/01/22 10:53:49;;;;;;;11.40;1.80;;;;;;;-0.55;77.14;101174.19;105929;1272;22561;-60
2022/01/22 10:56:22;;;;;;;9.20;2.00;;;;;;;-0.52;77.94;101179.31;106023;1271;23786;-60
2022/01/22 10:59:11;;;;;;;9.00;1.40;;;;;;;-0.47;77.61;101182.48;106064;1270;25569;-59
2022/01/22 11:01:52;;;;;;;11.80;2.30;;;;;;;-0.40;78.22;101188.31;105935;1271;22543;-60
2022/01/22 11:04:26;;;;;;;15.70;1.90;;;;;;;-0.31;78.54;101190.81;106029;1271;22742;-60
2022/01/22 11:07:00;;;;;;;11.70;1.80;;;;;;;-0.25;78.22;101195.23;106183;1271;22825;-60
2022/01/22 11:09:32;;;;;;;7.80;1.70;;;;;;;-0.22;78.19;101198.31;106010;1271;22753;-60
2022/01/22 11:12:06;;;;;;;12.90;2.20;;;;;;;-0.17;77.73;101203.36;105957;1271;25534;-59
2022/01/22 11:14:39;;;;;;;5.80;1.30;;;;;;;-0.18;76.61;101204.60;106077;1271;22541;-60
2022/01/22 11:17:10;;;;;;;10.00;2.00;;;;;;;-0.19;77.12;101202.88;105994;1270;24382;-60
2022/01/22 11:19:45;;;;;;;11.80;1.50;;;;;;;-0.19;77.29;101205.92;106039;1271;22575;-60
2022/01/22 11:22:18;;;;;;;11.60;1.70;;;;;;;-0.17;76.50;101207.90;106057;1271;23280;-59
2022/01/22 11:24:51;;;;;;;12.60;1.50;;;;;;;-0.14;77.10;101204.16;106088;1272;25637;-60
2022/01/22 11:27:24;;;;;;;8.70;1.00;;;;;;;-0.12;76.73;101207.70;106211;1271;24486;-60
2022/01/22 11:29:58;;;;;;;5.40;0.90;;;;;;;-0.08;77.01;101215.50;106056;1271;22590;-60
2022/01/22 11:32:33;;;;;;;9.60;1.80;;;;;;;-0.05;76.26;101217.30;105929;1271;26825;-59
2022/01/22 11:35:07;;;;;;;9.00;1.10;;;;;;;-0.02;76.87;101217.80;106078;1271;24428;-59
2022/01/22 11:37:47;;;;;;;8.30;1.60;;;;;;;0.03;77.03;101219.71;106049;1271;22603;-60
2022/01/22 11:40:23;;;;;;;7.60;0.90;;;;;;;0.04;76.75;101223.48;105883;1271;22553;-59
2022/01/22 11:43:05;;;;;;;5.50;0.80;;;;;;;0.05;76.13;101226.70;106076;1271;22560;-59
2022/01/22 11:45:42;;;;;;;7.20;0.90;;;;;;;0.04;74.77;101228.19;106007;1270;26548;-60
2022/01/22 11:48:17;;;;;;;6.90;1.20;;;;;;;-0.00;74.76;101226.36;106359;1271;24164;-59
2022/01/22 11:50:51;;;;;;;4.60;0.70;;;;;;;-0.01;74.71;101230.05;106014;1271;24927;-60
2022/01/22 11:53:29;;;;;;;6.80;0.70;;;;;;;-0.04;73.70;101233.32;106046;1271;25371;-60
2022/01/22 11:56:24;;;;;;;3.60;0.40;;;;;;;-0.06;74.30;101233.06;106099;1271;25464;-62
2022/01/22 11:59:23;;;;;;;3.30;0.60;;;;;;;-0.06;74.07;101244.21;106138;1271;22542;-60
2022/01/22 12:02:06;;;;;;;8.60;0.80;;;;;;;-0.07;73.31;101246.31;106002;1271;239363;-59
2022/01/22 12:05:07;;;;;;;2.80;0.50;;;;;;;-0.10;73.49;101252.26;106013;1271;22888;-60
2022/01/22 12:07:38;;;;;;;2.80;0.50;;;;;;;-0.14;72.18;101266.42;105674;1278;24239;-60
2022/01/22 12:16:37;;;;;;;4.30;0.60;;;;;;;-0.33;70.85;101280.00;105300;1277;22607;-61
2022/01/22 12:22:47;;;;;;;4.10;0.50;;;;;;;-0.33;70.58;101290.59;102412;1309;545082;-60
2022/01/22 12:25:52;;;;;;;3.90;0.30;;;;;;;-0.38;70.72;101292.02;105343;1280;22635;-60
2022/01/22 12:28:40;;;;;;;4.70;0.60;;;;;;;-0.40;71.59;101294.84;105295;1280;25576;-60
2022/01/22 12:31:14;;;;;;;5.70;0.70;;;;;;;-0.40;71.93;101299.85;105337;1281;24512;-60
2022/01/22 12:33:53;;;;;;;5.50;0.60;;;;;;;-0.39;72.15;101303.94;105326;1281;22645;-58
2022/01/22 12:36:38;;;;;;;6.40;1.10;;;;;;;-0.37;72.10;101306.70;106916;1277;190643;-59
2022/01/22 12:39:17;;;;;;;8.10;0.50;;;;;;;-0.36;71.59;101311.02;105703;1277;22556;-59
2022/01/22 12:41:57;;;;;;;6.20;0.80;;;;;;;-0.35;71.26;101307.04;105257;1277;22570;-59
2022/01/22 12:44:32;;;;;;;9.50;0.90;;;;;;;-0.33;72.00;101304.55;105402;1277;24441;-61
2022/01/22 12:47:06;;;;;;;6.40;0.70;;;;;;;-0.32;71.50;101296.72;105505;1278;22770;-60
2022/01/22 12:49:39;;;;;;;4.60;0.80;;;;;;;-0.28;71.67;101297.45;105319;1277;22805;-60
2022/01/22 12:52:13;;;;;;;5.20;0.60;;;;;;;-0.24;71.64;101295.83;105231;1277;23019;-61
2022/01/22 12:54:48;;;;;;;4.20;0.90;;;;;;;-0.17;71.84;101297.84;105405;1277;22563;-60
2022/01/22 12:57:21;;;;;;;6.30;0.70;;;;;;;-0.12;70.45;101301.81;105301;1277;24296;-60
2022/01/22 13:00:01;;;;;;;5.60;1.10;;;;;;;-0.11;69.90;101304.56;105233;1277;22571;-60
2022/01/22 13:02:50;;;;;;;3.40;0.80;;;;;;;-0.11;70.15;101307.30;105280;1277;22572;-59